Time;durP1;ratioP1;P1;durP2;ratioP2;P2;SDS_P1;SDS_P2;PMS_P1;PMS_P2;Temp;Humidity;BMP_temperature;BMP_pressure;BME280_temperature;BME280_humidity;BME280_pressure;Samples;Min_cycle;Max_cycle;Signal;HPM_P1;HPM_P2
2023/02/13 00:00:22;;;;;;;94.57;25.50;;;;;;;;;;5034490;28;20419;-78
2023/02/13 00:02:48;;;;;;;93.78;27.20;;;;;;;;;;5033559;28;20049;-79
2023/02/13 00:05:15;;;;;;;93.78;27.00;;;;;;;;;;5038226;28;20084;-78
2023/02/13 00:07:41;;;;;;;86.53;26.85;;;;;;;;;;5037107;28;20080;-78
2023/02/13 00:10:08;;;;;;;91.90;26.95;;;;;;;;;;5035192;28;20500;-77
2023/02/13 00:12:34;;;;;;;90.65;26.65;;;;;;;;;;5034345;28;20045;-78
2023/02/13 00:15:01;;;;;;;80.15;24.13;;;;;;;;;;5022586;28;20053;-78
2023/02/13 00:17:28;;;;;;;86.20;26.30;;;;;;;;;;5033871;28;20053;-78
2023/02/13 00:19:54;;;;;;;85.90;25.42;;;;;;;;;;5035663;28;20507;-78
2023/02/13 00:22:20;;;;;;;97.88;27.08;;;;;;;;;;5034543;28;20045;-78
2023/02/13 00:24:47;;;;;;;96.03;26.75;;;;;;;;;;5034490;28;20050;-78
2023/02/13 00:27:13;;;;;;;92.50;26.60;;;;;;;;;;5035230;28;20058;-79
2023/02/13 00:29:40;;;;;;;87.53;26.63;;;;;;;;;;5036357;28;20113;-78
2023/02/13 00:32:07;;;;;;;90.93;27.35;;;;;;;;;;5035907;28;20137;-78
2023/02/13 00:34:33;;;;;;;93.10;28.35;;;;;;;;;;5017451;28;20065;-78
2023/02/13 00:37:00;;;;;;;92.60;27.02;;;;;;;;;;5033712;28;20080;-78
2023/02/13 00:39:26;;;;;;;86.18;26.10;;;;;;;;;;5032572;28;20041;-78
2023/02/13 00:41:53;;;;;;;79.20;25.05;;;;;;;;;;5034349;28;20486;-79
2023/02/13 00:44:19;;;;;;;79.05;25.15;;;;;;;;;;5016858;28;20092;-79
2023/02/13 00:46:45;;;;;;;75.35;24.50;;;;;;;;;;5034075;28;20697;-78
2023/02/13 00:49:12;;;;;;;78.03;25.58;;;;;;;;;;5033287;28;20513;-78
2023/02/13 00:51:38;;;;;;;80.88;25.55;;;;;;;;;;5033746;28;20486;-78
2023/02/13 00:54:05;;;;;;;75.93;25.38;;;;;;;;;;5014226;28;20053;-78
2023/02/13 00:56:31;;;;;;;71.82;24.00;;;;;;;;;;5032609;28;20049;-79
2023/02/13 00:58:57;;;;;;;69.63;23.13;;;;;;;;;;5033138;28;20053;-78
2023/02/13 01:01:24;;;;;;;73.90;24.05;;;;;;;;;;5033333;28;20053;-77
2023/02/13 01:03:50;;;;;;;73.03;23.48;;;;;;;;;;5032329;28;20053;-78
2023/02/13 01:06:17;;;;;;;74.50;23.88;;;;;;;;;;5034225;28;20050;-78
2023/02/13 01:08:43;;;;;;;76.43;24.27;;;;;;;;;;5032693;28;20049;-78
2023/02/13 01:11:10;;;;;;;74.72;24.48;;;;;;;;;;5033921;28;20537;-78
2023/02/13 01:13:37;;;;;;;67.70;22.52;;;;;;;;;;5033518;28;20080;-79
2023/02/13 01:16:03;;;;;;;65.97;22.92;;;;;;;;;;5035080;28;20046;-79
2023/02/13 01:18:30;;;;;;;63.78;22.10;;;;;;;;;;5012175;28;20100;-79
2023/02/13 01:21:01;;;;;;;72.95;23.33;;;;;;;;;;4995234;28;20054;-78
2023/02/13 01:23:32;;;;;;;62.58;22.52;;;;;;;;;;5012978;28;20070;-78
2023/02/13 01:25:59;;;;;;;61.22;22.08;;;;;;;;;;5014470;28;20062;-78
2023/02/13 01:28:25;;;;;;;69.05;22.83;;;;;;;;;;5017365;28;20101;-79
2023/02/13 01:30:55;;;;;;;61.88;23.60;;;;;;;;;;5016541;28;20062;-79
2023/02/13 01:33:23;;;;;;;70.30;22.75;;;;;;;;;;4997510;28;20111;-79
2023/02/13 01:35:50;;;;;;;73.32;23.00;;;;;;;;;;5015123;28;20513;-77
2023/02/13 01:38:16;;;;;;;66.32;23.95;;;;;;;;;;4995199;28;20090;-80
2023/02/13 01:40:44;;;;;;;64.50;23.30;;;;;;;;;;5015289;28;20152;-79
2023/02/13 01:43:11;;;;;;;71.88;23.08;;;;;;;;;;5013902;28;20133;-79
2023/02/13 01:45:37;;;;;;;74.20;24.75;;;;;;;;;;5013924;28;20499;-79
2023/02/13 01:48:06;;;;;;;68.97;23.27;;;;;;;;;;5010101;28;20049;-78
2023/02/13 01:50:38;;;;;;;64.30;24.30;;;;;;;;;;5012277;28;20050;-79
2023/02/13 01:53:10;;;;;;;65.90;22.55;;;;;;;;;;5011553;28;20062;-78
2023/02/13 01:55:57;;;;;;;69.70;23.30;;;;;;;;;;5012535;28;20666;-78
2023/02/13 01:58:25;;;;;;;59.70;21.23;;;;;;;;;;5010032;28;20049;-78
2023/02/13 02:00:52;;;;;;;60.38;22.13;;;;;;;;;;5011537;28;20090;-78
2023/02/13 02:03:23;;;;;;;53.35;20.67;;;;;;;;;;5008054;28;20057;-78
2023/02/13 02:05:51;;;;;;;59.13;21.20;;;;;;;;;;4996512;28;20053;-77
2023/02/13 02:08:17;;;;;;;60.17;21.20;;;;;;;;;;5010778;28;20054;-77
2023/02/13 02:10:44;;;;;;;58.63;21.50;;;;;;;;;;5009810;28;20053;-77
2023/02/13 02:13:12;;;;;;;56.25;21.25;;;;;;;;;;5017578;28;20053;-77
2023/02/13 02:15:41;;;;;;;56.38;20.90;;;;;;;;;;5031056;28;20176;-78
2023/02/13 02:18:12;;;;;;;51.35;19.33;;;;;;;;;;5028172;28;20072;-78
2023/02/13 02:20:42;;;;;;;52.03;19.67;;;;;;;;;;5030228;28;20045;-78
2023/02/13 02:23:17;;;;;;;47.42;19.05;;;;;;;;;;5030516;28;20053;-78
2023/02/13 02:26:02;;;;;;;56.97;20.63;;;;;;;;;;5029839;28;20050;-78
2023/02/13 02:28:29;;;;;;;55.40;19.13;;;;;;;;;;5030294;28;20053;-78
2023/02/13 02:31:18;;;;;;;53.05;20.17;;;;;;;;;;5042630;28;20060;-78
2023/02/13 02:33:50;;;;;;;52.33;20.23;;;;;;;;;;5041225;28;20053;-77
2023/02/13 02:36:26;;;;;;;55.83;20.90;;;;;;;;;;5041965;28;20046;-78
2023/02/13 02:38:52;;;;;;;54.33;20.10;;;;;;;;;;5039913;28;20050;-78
2023/02/13 02:41:41;;;;;;;57.50;20.13;;;;;;;;;;5043652;28;20129;-79
2023/02/13 02:44:26;;;;;;;47.53;18.98;;;;;;;;;;5041393;28;20500;-80
2023/02/13 02:49:58;;;;;;;54.80;20.60;;;;;;;;;;5037370;28;20053;-77
2023/02/13 02:52:44;;;;;;;54.13;19.50;;;;;;;;;;5011086;28;20528;-78
2023/02/13 02:55:30;;;;;;;55.08;21.15;;;;;;;;;;5015919;28;20054;-79
2023/02/13 03:06:57;;;;;;;56.85;20.42;;;;;;;;;;4966995;28;20050;-78
2023/02/13 03:15:01;;;;;;;49.40;18.92;;;;;;;;;;5032357;28;20077;-78
2023/02/13 03:23:01;;;;;;;51.63;18.63;;;;;;;;;;5034193;28;20053;-77
2023/02/13 03:25:48;;;;;;;59.53;21.00;;;;;;;;;;5034424;28;20083;-78
2023/02/13 03:31:14;;;;;;;52.05;19.80;;;;;;;;;;5034648;28;20371;-77
2023/02/13 03:33:55;;;;;;;50.37;19.20;;;;;;;;;;5032758;28;20076;-78
2023/02/13 03:39:29;;;;;;;55.75;18.73;;;;;;;;;;5034197;28;20137;-77
2023/02/13 03:42:05;;;;;;;53.78;20.33;;;;;;;;;;5033724;28;20077;-79
2023/02/13 03:45:51;;;;;;;50.10;20.42;;;;;;;;;;5032892;28;20514;-79
2023/02/13 03:47:35;;;;;;;52.40;19.48;;;;;;;;;;5033257;28;20049;-79
2023/02/13 03:50:05;;;;;;;48.42;19.17;;;;;;;;;;5034733;28;20481;-79
2023/02/13 03:52:50;;;;;;;49.47;18.60;;;;;;;;;;5033482;28;20076;-78
2023/02/13 04:00:51;;;;;;;55.35;19.45;;;;;;;;;;5033262;28;20056;-78
2023/02/13 04:03:26;;;;;;;54.20;20.13;;;;;;;;;;5031922;28;20133;-78
2023/02/13 04:05:57;;;;;;;51.25;19.45;;;;;;;;;;5015548;28;20051;-79
2023/02/13 04:08:23;;;;;;;52.42;20.65;;;;;;;;;;5033091;28;20068;-79
2023/02/13 04:10:52;;;;;;;52.65;21.10;;;;;;;;;;5034720;28;20106;-79
2023/02/13 04:13:41;;;;;;;50.67;19.08;;;;;;;;;;5033019;28;20061;-78
2023/02/13 04:16:15;;;;;;;44.83;19.08;;;;;;;;;;5034971;28;20063;-78
2023/02/13 04:18:42;;;;;;;49.13;19.20;;;;;;;;;;5032258;28;20575;-78
2023/02/13 04:21:08;;;;;;;46.08;18.33;;;;;;;;;;5017353;28;20049;-76
2023/02/13 04:23:35;;;;;;;48.15;19.65;;;;;;;;;;5035526;28;20133;-80
2023/02/13 04:26:04;;;;;;;50.20;20.30;;;;;;;;;;5039895;28;20049;-78
2023/02/13 04:28:31;;;;;;;46.20;19.05;;;;;;;;;;5041247;28;20462;-78
2023/02/13 04:30:57;;;;;;;47.45;19.55;;;;;;;;;;5039890;28;20509;-77
2023/02/13 04:33:24;;;;;;;40.50;18.20;;;;;;;;;;5036880;28;20050;-78
2023/02/13 04:35:51;;;;;;;43.25;18.67;;;;;;;;;;5035104;28;20055;-78
2023/02/13 04:38:17;;;;;;;38.70;17.58;;;;;;;;;;5037261;28;20049;-79
2023/02/13 04:40:44;;;;;;;42.72;16.92;;;;;;;;;;5041041;28;20105;-79
2023/02/13 04:43:10;;;;;;;45.17;17.30;;;;;;;;;;5038418;28;20068;-79
2023/02/13 04:45:36;;;;;;;42.95;17.05;;;;;;;;;;5026031;28;20134;-78
2023/02/13 04:48:03;;;;;;;39.83;16.17;;;;;;;;;;5037897;28;20137;-78
2023/02/13 04:50:29;;;;;;;39.05;16.88;;;;;;;;;;5032258;28;20060;-79
2023/02/13 04:52:56;;;;;;;34.58;14.98;;;;;;;;;;5031962;28;20049;-77
2023/02/13 04:55:23;;;;;;;35.53;15.55;;;;;;;;;;5033412;28;20045;-79
2023/02/13 04:57:53;;;;;;;28.88;14.73;;;;;;;;;;5032016;28;20053;-78
2023/02/13 05:00:20;;;;;;;30.30;14.95;;;;;;;;;;5032632;28;20049;-78
2023/02/13 05:02:46;;;;;;;29.52;14.55;;;;;;;;;;5031775;28;20350;-78
2023/02/13 05:05:13;;;;;;;30.20;14.98;;;;;;;;;;5034464;28;20114;-78
2023/02/13 05:07:40;;;;;;;28.08;14.73;;;;;;;;;;5034101;28;20131;-78
2023/02/13 05:10:06;;;;;;;26.45;13.77;;;;;;;;;;5036483;28;20046;-77
2023/02/13 05:12:33;;;;;;;32.35;14.45;;;;;;;;;;5036504;28;20073;-79
2023/02/13 05:15:00;;;;;;;32.63;15.10;;;;;;;;;;5040042;28;20073;-78
2023/02/13 05:17:26;;;;;;;28.65;13.63;;;;;;;;;;5031853;28;20101;-75
2023/02/13 05:19:53;;;;;;;27.42;13.90;;;;;;;;;;5030088;28;20619;-75
2023/02/13 05:25:05;;;;;;;29.85;13.75;;;;;;;;;;5030741;28;20045;-74
2023/02/13 05:27:31;;;;;;;24.90;13.10;;;;;;;;;;5031018;28;20053;-79
2023/02/13 05:29:57;;;;;;;27.90;14.38;;;;;;;;;;5033143;28;20060;-79
2023/02/13 05:32:24;;;;;;;27.85;13.80;;;;;;;;;;5032332;28;20053;-78
2023/02/13 05:34:51;;;;;;;29.02;14.30;;;;;;;;;;5027654;28;20045;-78
2023/02/13 05:37:19;;;;;;;26.30;13.60;;;;;;;;;;5031152;28;20132;-78
2023/02/13 05:39:46;;;;;;;30.30;14.65;;;;;;;;;;5032337;28;20053;-78
2023/02/13 05:42:12;;;;;;;29.27;14.43;;;;;;;;;;5015136;28;20067;-79
2023/02/13 05:44:39;;;;;;;30.90;14.82;;;;;;;;;;5033087;28;20494;-78
2023/02/13 05:47:05;;;;;;;27.30;14.13;;;;;;;;;;5012233;28;20506;-79
2023/02/13 05:49:31;;;;;;;28.60;13.90;;;;;;;;;;5014821;28;20389;-79
2023/02/13 05:51:58;;;;;;;32.10;15.23;;;;;;;;;;5033138;28;20053;-79
2023/02/13 05:54:24;;;;;;;27.58;14.68;;;;;;;;;;5017231;28;20057;-79
2023/02/13 05:56:51;;;;;;;32.35;15.35;;;;;;;;;;5030744;28;20073;-80
2023/02/13 05:59:17;;;;;;;25.42;14.23;;;;;;;;;;5013432;28;20053;-78
2023/02/13 06:01:43;;;;;;;28.17;14.70;;;;;;;;;;5031717;28;20202;-77
2023/02/13 06:04:10;;;;;;;28.65;14.68;;;;;;;;;;5030976;28;20429;-79
2023/02/13 06:06:36;;;;;;;29.55;14.43;;;;;;;;;;5030270;28;20509;-79
2023/02/13 06:09:03;;;;;;;26.05;13.80;;;;;;;;;;5029644;28;20052;-81
2023/02/13 06:11:30;;;;;;;29.35;14.88;;;;;;;;;;5031151;28;20049;-80
2023/02/13 06:13:56;;;;;;;32.15;14.90;;;;;;;;;;5028284;28;20045;-80
2023/02/13 06:16:22;;;;;;;32.05;15.30;;;;;;;;;;5016456;28;20152;-80
2023/02/13 06:18:49;;;;;;;32.08;15.23;;;;;;;;;;5030278;28;20075;-81
2023/02/13 06:21:15;;;;;;;30.80;15.75;;;;;;;;;;5039560;28;20104;-80
2023/02/13 06:23:43;;;;;;;30.10;14.95;;;;;;;;;;5038508;28;20045;-79
2023/02/13 06:26:09;;;;;;;33.58;15.05;;;;;;;;;;5032153;28;20058;-78
2023/02/13 06:28:36;;;;;;;29.35;14.68;;;;;;;;;;5032112;28;20116;-81
2023/02/13 06:31:02;;;;;;;29.95;14.98;;;;;;;;;;5033049;28;20057;-81
2023/02/13 06:33:29;;;;;;;31.67;15.65;;;;;;;;;;5035570;28;20085;-79
2023/02/13 06:35:56;;;;;;;32.85;15.63;;;;;;;;;;5030023;28;20049;-80
2023/02/13 06:38:23;;;;;;;33.45;16.08;;;;;;;;;;5028105;28;20045;-78
2023/02/13 06:40:50;;;;;;;32.72;15.60;;;;;;;;;;5029144;28;20418;-79
2023/02/13 06:43:17;;;;;;;36.22;16.65;;;;;;;;;;5029298;28;20045;-80
2023/02/13 06:45:45;;;;;;;33.85;16.90;;;;;;;;;;5011846;28;20053;-80
2023/02/13 06:48:12;;;;;;;37.42;18.13;;;;;;;;;;5027154;28;20055;-80
2023/02/13 06:50:38;;;;;;;40.17;18.50;;;;;;;;;;5012929;28;20575;-80
2023/02/13 06:53:05;;;;;;;40.97;17.85;;;;;;;;;;5030671;28;20049;-80
2023/02/13 06:55:33;;;;;;;42.33;19.20;;;;;;;;;;5031317;28;20132;-80
2023/02/13 06:57:59;;;;;;;46.15;20.23;;;;;;;;;;5030394;28;20041;-80
2023/02/13 07:00:26;;;;;;;42.42;19.50;;;;;;;;;;5013845;28;20474;-80
2023/02/13 07:02:52;;;;;;;46.60;20.20;;;;;;;;;;5028700;28;20053;-80
2023/02/13 07:05:19;;;;;;;47.92;19.55;;;;;;;;;;5013322;28;20054;-80
2023/02/13 07:07:45;;;;;;;52.55;21.17;;;;;;;;;;5005288;28;20075;-81
2023/02/13 07:10:12;;;;;;;51.80;21.13;;;;;;;;;;5011985;28;20050;-80
2023/02/13 07:12:39;;;;;;;59.22;21.85;;;;;;;;;;5030779;28;20057;-82
2023/02/13 07:15:06;;;;;;;57.78;22.10;;;;;;;;;;5011258;28;20088;-81
2023/02/13 07:17:33;;;;;;;57.13;21.95;;;;;;;;;;5014815;28;20049;-80
2023/02/13 07:20:00;;;;;;;55.67;21.58;;;;;;;;;;5024107;28;20114;-79
2023/02/13 07:22:28;;;;;;;65.43;22.27;;;;;;;;;;5024657;28;20092;-79
2023/02/13 07:24:55;;;;;;;57.35;20.67;;;;;;;;;;5027338;28;20046;-80
2023/02/13 07:27:21;;;;;;;63.03;21.73;;;;;;;;;;5028228;28;20041;-80
2023/02/13 07:29:48;;;;;;;60.17;20.33;;;;;;;;;;5013896;28;20552;-80
2023/02/13 07:32:14;;;;;;;48.00;17.95;;;;;;;;;;5029429;28;20041;-80
2023/02/13 07:34:41;;;;;;;46.20;18.33;;;;;;;;;;5028015;28;20128;-80
2023/02/13 07:37:31;;;;;;;34.60;12.32;;;;;;;;;;5025936;28;20041;-81
2023/02/13 07:39:58;;;;;;;41.35;16.13;;;;;;;;;;5029183;28;20045;-81
2023/02/13 07:42:24;;;;;;;42.60;16.60;;;;;;;;;;5012010;28;20524;-80
2023/02/13 07:44:51;;;;;;;36.08;15.50;;;;;;;;;;5012168;28;20037;-81
2023/02/13 07:47:20;;;;;;;37.15;16.35;;;;;;;;;;5013887;28;20049;-82
2023/02/13 07:49:47;;;;;;;34.17;15.02;;;;;;;;;;5013825;28;20053;-80
2023/02/13 07:52:13;;;;;;;37.03;15.90;;;;;;;;;;5028890;28;20220;-80
2023/02/13 07:54:46;;;;;;;36.88;15.98;;;;;;;;;;5015267;28;20057;-79
2023/02/13 07:57:14;;;;;;;33.70;15.10;;;;;;;;;;5030999;28;20049;-81
2023/02/13 07:59:40;;;;;;;35.33;15.68;;;;;;;;;;5033193;28;20494;-80
2023/02/13 08:02:11;;;;;;;39.60;15.93;;;;;;;;;;5033620;28;20079;-81
2023/02/13 08:04:38;;;;;;;38.95;15.55;;;;;;;;;;5032832;28;20091;-81
2023/02/13 08:07:04;;;;;;;36.22;15.52;;;;;;;;;;5012889;28;20050;-79
2023/02/13 08:12:16;;;;;;;39.60;16.43;;;;;;;;;;5033929;28;20049;-80
2023/02/13 08:14:42;;;;;;;40.72;16.70;;;;;;;;;;5032224;28;20399;-80
2023/02/13 08:17:08;;;;;;;41.15;16.42;;;;;;;;;;5030795;28;20053;-80
2023/02/13 08:19:35;;;;;;;44.65;17.83;;;;;;;;;;5014393;28;20049;-80
2023/02/13 08:22:01;;;;;;;37.88;15.27;;;;;;;;;;5033814;28;20054;-79
2023/02/13 08:24:31;;;;;;;41.22;16.67;;;;;;;;;;5015781;28;20060;-80
2023/02/13 08:26:57;;;;;;;33.35;15.18;;;;;;;;;;5033658;28;20388;-79
2023/02/13 08:29:23;;;;;;;45.85;16.55;;;;;;;;;;5034883;28;20147;-80
2023/02/13 08:31:50;;;;;;;40.60;17.80;;;;;;;;;;5034229;28;20064;-81
2023/02/13 08:34:16;;;;;;;37.05;15.82;;;;;;;;;;5012746;28;20646;-81
2023/02/13 08:36:43;;;;;;;38.08;15.95;;;;;;;;;;5032764;28;20053;-78
2023/02/13 08:39:09;;;;;;;37.20;15.95;;;;;;;;;;5032476;28;20048;-78
2023/02/13 08:41:36;;;;;;;36.75;16.33;;;;;;;;;;5033725;28;20044;-79
2023/02/13 08:44:02;;;;;;;39.92;16.10;;;;;;;;;;5033617;28;20104;-78
2023/02/13 08:46:28;;;;;;;36.92;15.32;;;;;;;;;;5013884;28;20056;-79
2023/02/13 08:48:55;;;;;;;38.13;16.20;;;;;;;;;;5033079;28;20049;-79
2023/02/13 08:51:21;;;;;;;35.47;15.52;;;;;;;;;;5034043;28;20076;-77
2023/02/13 08:53:48;;;;;;;39.55;16.40;;;;;;;;;;5031170;28;20084;-79
2023/02/13 08:56:14;;;;;;;27.27;12.07;;;;;;;;;;5033980;28;20045;-80
2023/02/13 08:58:41;;;;;;;34.90;14.80;;;;;;;;;;5016022;28;20046;-78
2023/02/13 09:01:07;;;;;;;33.67;14.13;;;;;;;;;;5036446;28;20096;-81
2023/02/13 09:03:34;;;;;;;35.85;15.27;;;;;;;;;;5034972;28;20041;-80
2023/02/13 09:06:01;;;;;;;32.08;13.57;;;;;;;;;;5019039;28;20053;-80
2023/02/13 09:08:27;;;;;;;32.80;13.38;;;;;;;;;;5033706;28;20057;-81
2023/02/13 09:10:55;;;;;;;28.52;12.95;;;;;;;;;;5034126;28;20136;-81
2023/02/13 09:13:21;;;;;;;24.52;11.85;;;;;;;;;;5035147;28;20155;-80
2023/02/13 09:15:47;;;;;;;26.73;11.73;;;;;;;;;;5016398;28;20053;-82
2023/02/13 09:18:14;;;;;;;27.23;10.93;;;;;;;;;;5037613;28;20053;-81
2023/02/13 09:20:40;;;;;;;27.45;11.93;;;;;;;;;;5036204;28;20087;-80
2023/02/13 09:23:07;;;;;;;29.50;13.00;;;;;;;;;;5034552;28;20049;-81
2023/02/13 09:25:34;;;;;;;30.35;13.48;;;;;;;;;;5034465;28;20501;-81
2023/02/13 09:28:00;;;;;;;32.25;14.23;;;;;;;;;;5033396;28;20136;-78
2023/02/13 09:30:26;;;;;;;30.55;13.63;;;;;;;;;;5032666;28;20049;-79
2023/02/13 09:32:53;;;;;;;27.73;13.43;;;;;;;;;;5032360;28;20060;-79
2023/02/13 09:35:20;;;;;;;33.72;14.07;;;;;;;;;;5034104;28;20056;-80
2023/02/13 09:37:47;;;;;;;31.75;13.57;;;;;;;;;;5015497;28;20053;-80
2023/02/13 09:40:22;;;;;;;32.80;13.70;;;;;;;;;;5036743;28;20076;-80
2023/02/13 09:42:49;;;;;;;27.20;12.70;;;;;;;;;;5033199;28;20501;-79
2023/02/13 09:45:18;;;;;;;24.30;11.65;;;;;;;;;;5033794;28;20056;-80
2023/02/13 09:47:45;;;;;;;34.35;14.07;;;;;;;;;;5031347;28;20049;-79
2023/02/13 09:50:23;;;;;;;30.85;13.25;;;;;;;;;;5034102;28;20045;-81
2023/02/13 09:52:51;;;;;;;26.75;12.88;;;;;;;;;;5036815;28;20347;-79
2023/02/13 09:55:20;;;;;;;29.00;12.88;;;;;;;;;;5036244;28;20045;-80
2023/02/13 09:57:59;;;;;;;26.67;11.90;;;;;;;;;;5035489;28;20051;-79
2023/02/13 10:00:35;;;;;;;26.08;12.40;;;;;;;;;;5035969;28;20049;-80
2023/02/13 10:03:04;;;;;;;28.20;13.35;;;;;;;;;;5019331;28;20045;-79
2023/02/13 10:05:46;;;;;;;28.58;13.27;;;;;;;;;;5036456;28;20053;-80
2023/02/13 10:08:18;;;;;;;28.67;12.40;;;;;;;;;;5011242;28;20055;-81
2023/02/13 10:11:03;;;;;;;27.05;12.27;;;;;;;;;;5011278;28;20050;-82
2023/02/13 10:13:57;;;;;;;29.35;12.38;;;;;;;;;;5011558;28;20493;-81
2023/02/13 10:16:36;;;;;;;28.20;11.98;;;;;;;;;;5014257;28;20057;-81
2023/02/13 10:19:05;;;;;;;29.42;12.05;;;;;;;;;;5028556;28;20041;-81
2023/02/13 10:21:34;;;;;;;31.73;13.55;;;;;;;;;;5013812;28;20138;-81
2023/02/13 10:24:06;;;;;;;28.63;13.38;;;;;;;;;;5013461;28;20065;-81
2023/02/13 10:26:41;;;;;;;27.73;12.15;;;;;;;;;;5028719;28;20049;-80
2023/02/13 10:32:07;;;;;;;32.92;13.13;;;;;;;;;;5031490;28;20053;-79
2023/02/13 10:34:37;;;;;;;32.25;13.60;;;;;;;;;;5029307;28;20520;-79
2023/02/13 10:37:07;;;;;;;29.42;12.65;;;;;;;;;;5030701;28;20057;-80
2023/02/13 10:39:34;;;;;;;29.80;12.48;;;;;;;;;;5030639;28;20049;-79
2023/02/13 10:42:15;;;;;;;21.25;10.00;;;;;;;;;;5031249;28;20048;-78
2023/02/13 10:44:42;;;;;;;22.25;10.43;;;;;;;;;;5013739;28;20056;-80
2023/02/13 10:47:08;;;;;;;20.58;10.15;;;;;;;;;;5013762;28;20046;-79
2023/02/13 10:49:44;;;;;;;18.30;9.07;;;;;;;;;;5032077;28;20509;-79
2023/02/13 10:52:10;;;;;;;16.75;8.68;;;;;;;;;;5013069;28;20136;-79
2023/02/13 10:54:50;;;;;;;16.83;8.98;;;;;;;;;;5028002;28;20060;-78
2023/02/13 10:57:27;;;;;;;17.98;9.15;;;;;;;;;;5010308;28;20148;-80
2023/02/13 10:59:56;;;;;;;17.25;9.02;;;;;;;;;;5028036;28;20046;-79
2023/02/13 11:02:27;;;;;;;21.25;9.27;;;;;;;;;;5011373;28;20060;-79
2023/02/13 11:05:01;;;;;;;19.40;10.00;;;;;;;;;;5011094;28;20072;-79
2023/02/13 11:07:29;;;;;;;16.23;8.77;;;;;;;;;;5027778;28;20616;-79
2023/02/13 11:09:58;;;;;;;16.90;9.02;;;;;;;;;;5010180;28;20053;-79
2023/02/13 11:12:25;;;;;;;23.05;10.50;;;;;;;;;;5007730;28;20488;-79
2023/02/13 11:14:56;;;;;;;19.67;10.40;;;;;;;;;;5017160;28;20057;-78
2023/02/13 11:17:23;;;;;;;21.02;9.07;;;;;;;;;;5012453;28;20054;-78
2023/02/13 11:19:51;;;;;;;14.95;9.00;;;;;;;;;;5022999;28;20049;-79
2023/02/13 11:22:29;;;;;;;14.27;8.15;;;;;;;;;;5024428;28;20052;-77
2023/02/13 11:24:57;;;;;;;17.27;8.57;;;;;;;;;;5040238;28;20113;-80
2023/02/13 11:27:34;;;;;;;13.50;8.35;;;;;;;;;;5011301;28;20623;-79
2023/02/13 11:30:03;;;;;;;12.07;7.38;;;;;;;;;;5011796;28;20053;-79
2023/02/13 11:32:31;;;;;;;12.38;7.22;;;;;;;;;;5030039;28;20433;-79
2023/02/13 11:35:05;;;;;;;12.63;7.05;;;;;;;;;;5032526;28;20069;-78
2023/02/13 11:37:32;;;;;;;15.27;7.53;;;;;;;;;;5033811;28;20076;-79
2023/02/13 11:39:59;;;;;;;9.13;6.28;;;;;;;;;;5033158;28;20048;-80
2023/02/13 11:42:34;;;;;;;9.23;6.03;;;;;;;;;;5033859;28;20141;-78
2023/02/13 11:45:19;;;;;;;9.23;6.05;;;;;;;;;;5033101;28;20113;-79
2023/02/13 11:47:45;;;;;;;8.63;5.78;;;;;;;;;;5031188;28;20152;-78
2023/02/13 11:50:33;;;;;;;9.85;6.47;;;;;;;;;;5033304;28;20045;-79
2023/02/13 11:53:00;;;;;;;9.00;5.28;;;;;;;;;;5032670;28;20552;-81
2023/02/13 11:55:29;;;;;;;8.88;6.10;;;;;;;;;;5031783;28;20627;-78
2023/02/13 11:57:56;;;;;;;9.93;6.22;;;;;;;;;;5014327;28;20053;-79
2023/02/13 12:00:36;;;;;;;10.02;6.75;;;;;;;;;;5032966;28;20049;-78
2023/02/13 12:03:24;;;;;;;9.45;6.47;;;;;;;;;;5032226;28;20119;-79
2023/02/13 12:06:01;;;;;;;9.95;6.63;;;;;;;;;;5032753;28;20083;-79
2023/02/13 12:08:29;;;;;;;9.52;7.03;;;;;;;;;;5032241;28;20052;-81
2023/02/13 12:10:57;;;;;;;9.73;6.78;;;;;;;;;;5016001;28;20046;-79
2023/02/13 12:13:23;;;;;;;10.98;6.50;;;;;;;;;;5034250;28;20041;-79
2023/02/13 12:15:56;;;;;;;10.43;6.85;;;;;;;;;;5018350;28;20053;-79
2023/02/13 12:18:32;;;;;;;11.55;7.60;;;;;;;;;;5033245;28;20115;-78
2023/02/13 12:21:13;;;;;;;10.40;7.03;;;;;;;;;;5016559;28;20057;-79
2023/02/13 12:23:40;;;;;;;10.50;7.32;;;;;;;;;;5035451;28;20057;-80
2023/02/13 12:26:14;;;;;;;9.90;7.05;;;;;;;;;;5033999;28;20596;-79
2023/02/13 12:28:50;;;;;;;20.70;11.07;;;;;;;;;;5033283;28;20649;-79
2023/02/13 12:31:16;;;;;;;13.38;7.93;;;;;;;;;;5034488;28;20658;-80
2023/02/13 12:33:50;;;;;;;11.15;7.50;;;;;;;;;;5031509;28;20046;-79
2023/02/13 12:36:16;;;;;;;11.15;6.45;;;;;;;;;;5014865;28;20056;-80
2023/02/13 12:38:46;;;;;;;11.05;7.60;;;;;;;;;;5032712;28;20052;-79
2023/02/13 12:41:14;;;;;;;11.80;7.82;;;;;;;;;;5033449;28;20053;-79
2023/02/13 12:43:43;;;;;;;13.38;7.63;;;;;;;;;;5032765;28;20056;-78
2023/02/13 12:46:30;;;;;;;12.45;7.93;;;;;;;;;;5031224;28;20099;-76
2023/02/13 12:48:56;;;;;;;12.80;7.90;;;;;;;;;;5017376;28;20129;-78
2023/02/13 12:51:36;;;;;;;15.18;9.00;;;;;;;;;;5033757;28;20061;-79
2023/02/13 12:54:26;;;;;;;14.80;8.40;;;;;;;;;;5031716;28;20511;-77
2023/02/13 12:57:11;;;;;;;14.00;8.13;;;;;;;;;;5020841;28;20052;-78
2023/02/13 12:59:41;;;;;;;13.85;8.20;;;;;;;;;;5012214;28;20049;-78
2023/02/13 13:02:19;;;;;;;19.00;8.63;;;;;;;;;;5014900;28;20049;-81
2023/02/13 13:04:55;;;;;;;16.20;9.32;;;;;;;;;;5031984;28;20056;-78
2023/02/13 13:07:30;;;;;;;15.65;8.90;;;;;;;;;;5032216;28;20056;-79
2023/02/13 13:10:05;;;;;;;17.13;9.20;;;;;;;;;;5030030;28;20045;-76
2023/02/13 13:12:37;;;;;;;14.00;8.70;;;;;;;;;;5032021;28;20410;-79
2023/02/13 13:15:04;;;;;;;16.15;8.55;;;;;;;;;;5032589;28;20133;-82
2023/02/13 13:17:33;;;;;;;13.93;7.72;;;;;;;;;;5027284;28;20659;-81
2023/02/13 13:20:18;;;;;;;14.82;7.88;;;;;;;;;;5032313;28;20049;-79
2023/02/13 13:22:52;;;;;;;15.17;8.40;;;;;;;;;;5032613;28;20068;-78
2023/02/13 13:25:22;;;;;;;13.80;7.85;;;;;;;;;;5033616;28;20072;-79
2023/02/13 13:27:51;;;;;;;16.90;8.93;;;;;;;;;;5031687;28;20049;-79
2023/02/13 13:30:21;;;;;;;18.08;9.27;;;;;;;;;;5032502;28;20088;-79
2023/02/13 13:32:51;;;;;;;18.75;9.55;;;;;;;;;;5032053;28;20053;-80
2023/02/13 13:35:18;;;;;;;17.95;9.60;;;;;;;;;;5017561;28;20049;-79
2023/02/13 13:38:01;;;;;;;18.42;9.23;;;;;;;;;;5014180;28;20446;-81
2023/02/13 13:40:33;;;;;;;18.38;9.88;;;;;;;;;;5007766;28;20041;-82
2023/02/13 13:43:19;;;;;;;18.73;10.30;;;;;;;;;;5013237;28;20060;-82
2023/02/13 13:45:46;;;;;;;17.08;9.45;;;;;;;;;;4983293;28;20045;-81
2023/02/13 13:48:12;;;;;;;21.52;10.43;;;;;;;;;;5030760;28;20080;-81
2023/02/13 13:50:40;;;;;;;23.45;10.73;;;;;;;;;;5031464;28;20060;-80
2023/02/13 13:53:14;;;;;;;22.55;11.20;;;;;;;;;;5031447;28;20092;-81
2023/02/13 13:55:57;;;;;;;21.70;11.25;;;;;;;;;;5028899;28;20445;-82
2023/02/13 13:58:32;;;;;;;22.85;10.45;;;;;;;;;;5024014;28;20057;-80
2023/02/13 14:01:14;;;;;;;18.60;10.07;;;;;;;;;;5029102;28;20046;-81
2023/02/13 14:03:45;;;;;;;18.50;9.75;;;;;;;;;;5029585;28;20108;-81
2023/02/13 14:06:15;;;;;;;22.25;10.48;;;;;;;;;;5015217;28;20148;-81
2023/02/13 14:08:45;;;;;;;19.48;10.60;;;;;;;;;;5014216;28;20046;-81
2023/02/13 14:11:24;;;;;;;23.65;11.30;;;;;;;;;;5034713;28;20612;-81
2023/02/13 14:13:50;;;;;;;22.95;10.98;;;;;;;;;;5031888;28;20053;-81
2023/02/13 14:16:36;;;;;;;21.15;10.73;;;;;;;;;;5036936;28;20056;-80
2023/02/13 14:19:03;;;;;;;22.88;11.98;;;;;;;;;;5030103;28;20125;-81
2023/02/13 14:21:29;;;;;;;22.80;11.98;;;;;;;;;;5038423;28;20049;-81
2023/02/13 14:23:59;;;;;;;21.92;11.02;;;;;;;;;;5037914;28;20060;-81
2023/02/13 14:26:48;;;;;;;21.58;11.95;;;;;;;;;;5038574;28;20053;-80
2023/02/13 14:29:45;;;;;;;18.88;10.25;;;;;;;;;;5037641;28;20462;-81
2023/02/13 14:32:17;;;;;;;20.63;11.57;;;;;;;;;;5017548;28;20050;-81
2023/02/13 14:34:49;;;;;;;25.80;12.30;;;;;;;;;;5034024;28;20057;-81
2023/02/13 14:37:28;;;;;;;22.85;11.88;;;;;;;;;;5018893;28;20052;-82
2023/02/13 14:40:16;;;;;;;24.92;12.43;;;;;;;;;;5035327;28;20046;-81
2023/02/13 14:43:03;;;;;;;20.38;11.75;;;;;;;;;;5020185;28;20050;-81
2023/02/13 14:45:31;;;;;;;22.42;12.20;;;;;;;;;;4957256;28;20141;-81
2023/02/13 14:48:03;;;;;;;22.65;11.60;;;;;;;;;;5015505;28;20046;-81
2023/02/13 14:50:49;;;;;;;21.20;11.65;;;;;;;;;;4999231;28;20049;-82
2023/02/13 14:53:19;;;;;;;22.42;11.75;;;;;;;;;;5018358;28;20132;-80
2023/02/13 14:55:48;;;;;;;21.52;12.23;;;;;;;;;;5026607;28;20049;-81
2023/02/13 14:58:27;;;;;;;23.98;12.40;;;;;;;;;;5033132;28;20071;-81
2023/02/13 15:00:53;;;;;;;24.33;12.50;;;;;;;;;;5033192;28;20049;-81
2023/02/13 15:03:20;;;;;;;22.73;12.43;;;;;;;;;;5033216;28;20117;-81
2023/02/13 15:05:49;;;;;;;28.90;13.48;;;;;;;;;;5032982;28;20128;-81
2023/02/13 15:08:20;;;;;;;21.83;12.75;;;;;;;;;;5033660;28;20505;-81
2023/02/13 15:10:51;;;;;;;21.70;12.48;;;;;;;;;;5034559;28;20140;-81
2023/02/13 15:13:30;;;;;;;24.45;13.18;;;;;;;;;;5036173;28;20053;-81
2023/02/13 15:15:58;;;;;;;24.85;13.10;;;;;;;;;;5037728;28;20108;-82
2023/02/13 15:18:27;;;;;;;25.08;12.95;;;;;;;;;;5034403;28;20049;-81
2023/02/13 15:20:55;;;;;;;25.15;13.77;;;;;;;;;;5035756;28;20124;-81